Time;durP1;ratioP1;P1;durP2;ratioP2;P2;SDS_P1;SDS_P2;PMS_P1;PMS_P2;Temp;Humidity;BMP_temperature;BMP_pressure;BME280_temperature;BME280_humidity;BME280_pressure;Samples;Min_cycle;Max_cycle;Signal;HPM_P1;HPM_P2
2022/04/11 00:00:00;;;;;;;1.17;0.30;;;;;;;9.64;66.08;101155.19;2570706;23;20185;-65
2022/04/11 00:01:01;;;;;;;0.32;0.30;;;;;;;10.27;65.96;101256.91;2570821;23;20232;-65
2022/04/11 00:02:02;;;;;;;0.60;0.40;;;;;;;10.32;65.29;101258.44;2557559;23;20164;-65
2022/04/11 00:03:03;;;;;;;0.90;0.40;;;;;;;10.34;65.55;101256.00;2557656;23;20154;-65
2022/04/11 00:04:04;;;;;;;1.23;0.40;;;;;;;10.18;65.50;101228.13;2570837;23;20574;-65
2022/04/11 00:05:05;;;;;;;0.40;0.33;;;;;;;10.35;65.55;101261.13;2570876;23;20174;-65
2022/04/11 00:06:05;;;;;;;1.00;0.40;;;;;;;10.35;65.20;101271.47;2570741;23;20158;-65
2022/04/11 00:07:06;;;;;;;0.23;0.23;;;;;;;10.32;64.83;101261.19;2571039;23;20159;-65
2022/04/11 00:08:06;;;;;;;1.27;0.40;;;;;;;10.34;64.70;101264.31;2570864;23;20650;-65
2022/04/11 00:09:07;;;;;;;1.37;0.50;;;;;;;10.39;64.87;101280.47;2570954;23;20181;-65
2022/04/11 00:10:08;;;;;;;0.37;0.30;;;;;;;10.32;64.91;101286.91;2570842;23;20154;-65
2022/04/11 00:11:09;;;;;;;1.42;0.20;;;;;;;10.37;65.32;101283.69;2570748;23;20156;-65
2022/04/11 00:12:10;;;;;;;0.70;0.43;;;;;;;10.40;64.73;101282.09;2570935;23;20153;-65
2022/04/11 00:13:11;;;;;;;0.43;0.40;;;;;;;10.31;64.77;101271.47;2570600;23;20664;-65
2022/04/11 00:14:11;;;;;;;1.00;0.37;;;;;;;10.21;63.71;101252.22;2570896;23;20163;-65
2022/04/11 00:15:12;;;;;;;0.97;0.40;;;;;;;10.39;63.43;101286.03;2570844;23;20606;-65
2022/04/11 00:16:13;;;;;;;0.80;0.37;;;;;;;10.44;63.65;101299.41;2570911;23;20189;-65
2022/04/11 00:17:14;;;;;;;0.50;0.40;;;;;;;10.44;63.41;101299.41;2570533;23;20157;-65
2022/04/11 00:18:14;;;;;;;0.87;0.30;;;;;;;10.45;63.19;101309.31;2570797;23;20649;-65
2022/04/11 00:19:15;;;;;;;3.13;0.30;;;;;;;9.86;62.97;101224.94;2570950;23;20568;-65
2022/04/11 00:20:16;;;;;;;0.90;0.40;;;;;;;10.32;63.66;101292.47;2570678;23;20173;-65
2022/04/11 00:21:16;;;;;;;0.30;0.30;;;;;;;10.39;63.52;101308.19;2570728;23;20595;-65
2022/04/11 00:22:17;;;;;;;1.10;0.60;;;;;;;10.37;63.16;101314.16;2570769;23;20154;-65
2022/04/11 00:23:18;;;;;;;1.67;0.60;;;;;;;10.32;63.05;101313.84;2570578;23;20146;-65
2022/04/11 00:24:19;;;;;;;1.58;0.40;;;;;;;9.55;62.69;101215.78;2570919;23;20158;-65
2022/04/11 00:25:19;;;;;;;0.70;0.40;;;;;;;10.20;62.74;101317.16;2570798;23;20182;-65
2022/04/11 00:26:20;;;;;;;0.70;0.40;;;;;;;10.17;63.28;101318.75;2570667;23;20572;-65
2022/04/11 00:27:20;;;;;;;1.37;0.30;;;;;;;10.10;63.01;101323.59;2570669;23;20237;-65
2022/04/11 00:28:21;;;;;;;1.20;0.23;;;;;;;10.07;62.92;101321.63;2570695;23;20150;-65
2022/04/11 00:29:21;;;;;;;0.93;0.40;;;;;;;10.06;62.42;101326.41;2570754;23;20502;-65
2022/04/11 00:30:22;;;;;;;0.70;0.40;;;;;;;9.92;62.29;101325.72;2570682;23;20151;-65
2022/04/11 00:31:22;;;;;;;0.73;0.40;;;;;;;9.81;62.51;101327.81;2570777;23;20153;-65
2022/04/11 00:32:23;;;;;;;0.50;0.30;;;;;;;9.86;62.17;101335.66;2570654;23;20232;-65
2022/04/11 00:33:23;;;;;;;0.57;0.30;;;;;;;9.87;62.46;101335.25;2570750;23;20151;-65
2022/04/11 00:34:24;;;;;;;0.43;0.30;;;;;;;9.87;62.59;101331.69;2570772;23;20537;-65
2022/04/11 00:35:25;;;;;;;0.30;0.30;;;;;;;9.04;62.88;101206.78;2570628;23;20148;-65
2022/04/11 00:36:25;;;;;;;0.50;0.30;;;;;;;9.02;62.98;101226.53;2570762;23;20552;-65
2022/04/11 00:37:26;;;;;;;0.83;0.40;;;;;;;9.69;62.66;101331.09;2570649;23;20229;-65
2022/04/11 00:38:26;;;;;;;0.47;0.30;;;;;;;9.71;62.32;101335.00;2557644;23;20233;-65
2022/04/11 00:39:27;;;;;;;2.20;0.50;;;;;;;9.39;62.79;101290.22;2557691;23;20244;-65
2022/04/11 00:40:27;;;;;;;1.40;0.30;;;;;;;9.59;62.94;101341.03;2570566;23;20252;-65
2022/04/11 00:41:28;;;;;;;0.40;0.30;;;;;;;9.50;62.74;101340.75;2570676;23;20155;-65
2022/04/11 00:42:29;;;;;;;0.67;0.40;;;;;;;8.72;63.28;101226.34;2570618;23;20658;-65
2022/04/11 00:43:37;;;;;;;0.40;0.30;;;;;;;9.49;62.83;101341.13;2570586;23;20236;-65
2022/04/11 00:44:38;;;;;;;0.35;0.30;;;;;;;9.44;63.04;101339.56;2570782;23;20129;-64
2022/04/11 00:45:38;;;;;;;0.30;0.30;;;;;;;8.90;63.62;101259.41;2570609;23;20225;-65
2022/04/11 00:46:39;;;;;;;0.50;0.30;;;;;;;9.18;63.82;101315.28;2570606;23;20542;-65
2022/04/11 00:47:39;;;;;;;0.50;0.30;;;;;;;9.34;63.80;101345.19;2570408;23;20245;-65
2022/04/11 00:48:40;;;;;;;0.90;0.40;;;;;;;8.34;63.60;101193.44;2570627;23;20155;-65
2022/04/11 00:49:41;;;;;;;0.40;0.30;;;;;;;8.14;63.64;101175.78;2570715;23;20146;-65
2022/04/11 00:50:42;;;;;;;0.30;0.30;;;;;;;9.30;63.93;101347.19;2570616;23;20490;-65
2022/04/11 00:51:43;;;;;;;0.87;0.30;;;;;;;8.60;63.75;101256.44;2570575;23;20152;-65
2022/04/11 00:52:50;;;;;;;0.30;0.30;;;;;;;9.27;63.29;101359.09;2570690;23;20144;-65
2022/04/11 00:53:52;;;;;;;0.60;0.50;;;;;;;8.92;63.73;101304.78;2570501;23;20537;-65
2022/04/11 00:54:53;;;;;;;0.60;0.40;;;;;;;9.19;63.81;101352.81;2570777;23;20152;-64
2022/04/11 00:55:56;;;;;;;0.47;0.30;;;;;;;9.16;64.37;101363.88;2557354;23;20161;-65
2022/04/11 00:56:57;;;;;;;0.98;0.52;;;;;;;8.83;64.23;101337.66;2557709;23;20228;-65
2022/04/11 00:57:59;;;;;;;2.47;0.40;;;;;;;8.40;65.03;101275.47;2570822;23;20590;-64
2022/04/11 00:59:01;;;;;;;1.90;0.50;;;;;;;8.96;65.25;101371.91;2570745;23;20595;-64
2022/04/11 01:00:07;;;;;;;1.65;0.50;;;;;;;8.82;65.79;101369.22;2570463;23;20183;-64
2022/04/11 01:01:08;;;;;;;0.50;0.50;;;;;;;8.90;65.75;101369.97;2570406;23;20184;-65
2022/04/11 01:02:09;;;;;;;1.08;0.40;;;;;;;8.89;65.83;101373.94;2570689;23;20152;-64
2022/04/11 01:03:10;;;;;;;1.00;0.47;;;;;;;8.88;66.48;101366.81;2570365;23;20595;-65
2022/04/11 01:04:23;;;;;;;0.93;0.43;;;;;;;8.90;66.38;101372.72;2570577;23;20156;-64
2022/04/11 01:05:23;;;;;;;0.68;0.40;;;;;;;8.42;66.41;101314.56;2570026;23;20183;-65
2022/04/11 01:06:25;;;;;;;0.67;0.47;;;;;;;8.76;66.75;101368.06;2570516;23;20670;-65
2022/04/11 01:07:26;;;;;;;0.88;0.40;;;;;;;8.75;66.28;101371.22;2570547;23;20159;-65
2022/04/11 01:08:27;;;;;;;0.70;0.50;;;;;;;8.76;65.93;101376.34;2570535;23;20153;-64
2022/04/11 01:09:28;;;;;;;0.68;0.45;;;;;;;8.74;66.29;101369.66;2570502;23;20160;-64
2022/04/11 01:10:28;;;;;;;0.77;0.40;;;;;;;8.73;66.09;101377.16;2570538;23;20149;-64
2022/04/11 01:11:29;;;;;;;1.33;0.40;;;;;;;8.69;65.79;101372.84;2570518;23;20230;-64
2022/04/11 01:12:30;;;;;;;1.10;0.30;;;;;;;8.64;66.42;101376.81;2570532;23;20152;-64
2022/04/11 01:13:30;;;;;;;0.73;0.23;;;;;;;8.52;66.36;101362.66;2570316;23;20148;-64
2022/04/11 01:14:31;;;;;;;0.57;0.40;;;;;;;8.50;66.33;101352.00;2570507;23;20199;-64
2022/04/11 01:15:31;;;;;;;0.40;0.30;;;;;;;8.66;65.87;101377.19;2570549;23;20220;-64
2022/04/11 01:16:32;;;;;;;0.90;0.23;;;;;;;8.71;65.38;101378.75;2570387;23;20145;-64
2022/04/11 01:17:34;;;;;;;0.83;0.40;;;;;;;8.74;65.87;101375.19;2570304;23;20152;-64
2022/04/11 01:18:36;;;;;;;0.60;0.38;;;;;;;7.88;65.70;101254.38;2570372;23;20168;-64
2022/04/11 01:19:37;;;;;;;0.28;0.28;;;;;;;8.36;65.56;101329.19;2570511;23;20269;-64
2022/04/11 01:20:38;;;;;;;0.70;0.30;;;;;;;8.67;65.63;101381.50;2570650;23;20205;-64
2022/04/11 01:21:38;;;;;;;0.73;0.43;;;;;;;8.67;65.62;101386.28;2570456;23;20155;-64
2022/04/11 01:22:40;;;;;;;0.70;0.40;;;;;;;8.65;65.34;101388.63;2557183;23;20212;-64
2022/04/11 01:23:40;;;;;;;0.32;0.30;;;;;;;8.66;65.62;101393.75;2557375;23;20149;-64
2022/04/11 01:24:41;;;;;;;0.53;0.40;;;;;;;8.66;65.82;101388.22;2570296;23;20668;-64
2022/04/11 01:25:42;;;;;;;0.60;0.40;;;;;;;8.62;65.27;101389.44;2570493;23;20158;-64
2022/04/11 01:26:44;;;;;;;0.40;0.30;;;;;;;8.56;65.50;101386.31;2570204;23;20148;-64
2022/04/11 01:27:44;;;;;;;0.82;0.30;;;;;;;8.49;65.62;101386.34;2570637;23;20144;-64
2022/04/11 01:28:45;;;;;;;0.27;0.27;;;;;;;8.49;65.84;101388.28;2570548;23;20232;-64
2022/04/11 01:29:45;;;;;;;1.37;0.40;;;;;;;8.48;66.16;101387.53;2570468;23;20152;-64
2022/04/11 01:30:49;;;;;;;0.47;0.30;;;;;;;8.12;66.41;101344.59;2570449;23;20210;-64
2022/04/11 01:31:50;;;;;;;0.68;0.40;;;;;;;8.42;66.44;101391.09;2570418;23;20159;-64
2022/04/11 01:32:50;;;;;;;0.67;0.40;;;;;;;8.30;66.40;101386.78;2570511;23;20152;-64
2022/04/11 01:33:51;;;;;;;0.50;0.40;;;;;;;8.26;66.87;101388.75;2570370;23;20180;-64
2022/04/11 01:34:52;;;;;;;0.43;0.20;;;;;;;8.01;66.61;101384.44;2570659;23;20156;-64
2022/04/11 01:35:52;;;;;;;0.60;0.30;;;;;;;8.18;66.75;101395.47;2570333;23;20538;-64
2022/04/11 01:36:53;;;;;;;0.50;0.37;;;;;;;8.16;67.00;101386.00;2570281;23;20148;-64
2022/04/11 01:37:54;;;;;;;0.40;0.30;;;;;;;8.12;66.89;101386.00;2570372;23;20183;-64
2022/04/11 01:38:55;;;;;;;0.30;0.30;;;;;;;8.02;67.19;101370.25;2570451;23;20176;-64
2022/04/11 01:39:55;;;;;;;0.63;0.40;;;;;;;7.65;67.58;101314.72;2557132;23;20217;-65
2022/04/11 01:40:57;;;;;;;0.40;0.30;;;;;;;8.08;67.36;101396.25;2557380;23;20152;-64
2022/04/11 01:41:57;;;;;;;0.47;0.30;;;;;;;8.07;67.44;101393.91;2570334;23;20156;-64
2022/04/11 01:42:58;;;;;;;0.23;0.20;;;;;;;8.13;67.59;101395.88;2557029;23;20160;-64
2022/04/11 01:43:58;;;;;;;0.30;0.30;;;;;;;8.19;67.69;101397.03;2557250;23;20159;-64
2022/04/11 01:44:59;;;;;;;0.80;0.40;;;;;;;8.23;67.65;101399.81;2570131;23;20583;-64
2022/04/11 01:45:59;;;;;;;0.40;0.40;;;;;;;8.22;67.87;101389.97;2570412;23;20490;-64
2022/04/11 01:47:00;;;;;;;1.00;0.40;;;;;;;8.26;67.42;101388.75;2570445;23;20156;-64
2022/04/11 01:48:02;;;;;;;0.45;0.40;;;;;;;8.11;67.59;101376.13;2570543;23;20261;-64
2022/04/11 01:49:02;;;;;;;0.73;0.50;;;;;;;8.17;67.47;101390.34;2570474;23;20170;-64
2022/04/11 01:50:03;;;;;;;0.93;0.30;;;;;;;8.08;68.04;101387.97;2570429;23;20595;-64
2022/04/11 01:51:04;;;;;;;0.70;0.37;;;;;;;8.09;67.81;101394.31;2570297;23;20190;-64
2022/04/11 01:52:04;;;;;;;1.40;0.40;;;;;;;8.16;68.66;101397.03;2570479;23;20475;-64
2022/04/11 01:53:07;;;;;;;1.57;0.40;;;;;;;7.97;68.15;101373.41;2570208;23;20158;-64
2022/04/11 01:54:07;;;;;;;1.45;0.30;;;;;;;8.17;68.54;101395.84;2570338;23;20158;-64
2022/04/11 01:55:08;;;;;;;1.17;0.40;;;;;;;8.18;68.76;101400.97;2570551;23;20159;-65
2022/04/11 01:56:09;;;;;;;0.57;0.30;;;;;;;8.18;68.30;101400.97;2570412;23;20503;-64
2022/04/11 01:57:10;;;;;;;0.87;0.50;;;;;;;8.12;68.11;101396.25;2570186;23;20157;-64
2022/04/11 01:58:11;;;;;;;1.40;0.50;;;;;;;8.09;68.23;101400.59;2570703;23;20155;-64
2022/04/11 01:59:13;;;;;;;1.35;0.50;;;;;;;8.19;68.35;101404.50;2570487;23;20375;-64
2022/04/11 02:00:14;;;;;;;1.48;0.40;;;;;;;8.21;68.10;101400.19;2570291;23;20238;-64
2022/04/11 02:01:18;;;;;;;1.00;0.50;;;;;;;8.25;68.01;101405.75;2570279;23;20214;-64
2022/04/11 02:02:18;;;;;;;0.47;0.38;;;;;;;8.28;67.33;101402.97;2570210;23;20602;-64
2022/04/11 02:03:19;;;;;;;0.60;0.40;;;;;;;8.32;67.39;101403.75;2570213;23;20511;-64
2022/04/11 02:04:19;;;;;;;0.50;0.47;;;;;;;8.33;67.45;101402.56;2570428;23;20178;-64
2022/04/11 02:05:20;;;;;;;1.60;0.50;;;;;;;8.34;67.76;101406.09;2570318;23;20500;-64
2022/04/11 02:06:20;;;;;;;4.83;0.70;;;;;;;8.37;67.56;101408.06;2570245;23;20178;-64
2022/04/11 02:07:21;;;;;;;1.77;0.50;;;;;;;8.26;67.66;101404.56;2570347;23;20226;-64
2022/04/11 02:08:21;;;;;;;2.30;0.63;;;;;;;8.27;67.33;101411.63;2570343;23;20155;-64
2022/04/11 02:09:22;;;;;;;1.63;0.70;;;;;;;8.26;67.85;101410.84;2570449;23;20210;-64
2022/04/11 02:10:23;;;;;;;2.77;0.70;;;;;;;8.28;67.42;101410.44;2570450;23;20463;-64
2022/04/11 02:11:23;;;;;;;6.15;1.15;;;;;;;8.25;67.66;101411.25;2570239;23;20184;-65
2022/04/11 02:12:24;;;;;;;2.67;0.80;;;;;;;8.17;67.91;101412.41;2570372;23;20614;-65
2022/04/11 02:13:24;;;;;;;5.07;0.97;;;;;;;8.16;67.77;101414.38;2570299;23;20500;-64
2022/04/11 02:14:25;;;;;;;1.60;0.70;;;;;;;8.20;67.74;101409.69;2570351;23;20632;-65
2022/04/11 02:15:25;;;;;;;2.43;0.80;;;;;;;8.21;67.45;101416.00;2570287;23;20643;-64
2022/04/11 02:16:26;;;;;;;2.77;1.00;;;;;;;8.20;67.52;101417.19;2570534;23;20515;-64
2022/04/11 02:17:27;;;;;;;1.83;0.60;;;;;;;8.19;67.93;101412.81;2570248;23;20155;-64
2022/04/11 02:18:27;;;;;;;1.73;0.77;;;;;;;8.18;67.81;101414.78;2570414;23;20188;-64
2022/04/11 02:19:28;;;;;;;3.53;0.93;;;;;;;8.15;68.03;101421.09;2570328;23;20159;-65
2022/04/11 02:20:28;;;;;;;2.53;0.90;;;;;;;8.11;68.23;101419.53;2570202;23;20180;-64
2022/04/11 02:21:29;;;;;;;3.30;1.00;;;;;;;7.86;68.37;101380.13;2570246;23;20151;-64
2022/04/11 02:22:51;;;;;;;1.33;0.50;;;;;;;8.13;67.96;101423.47;2570408;23;20145;-64
2022/04/11 02:23:52;;;;;;;1.27;0.63;;;;;;;7.39;68.11;101300.56;2570162;23;20650;-64
2022/04/11 02:24:52;;;;;;;1.13;0.70;;;;;;;8.11;68.21;101412.03;2570361;23;20509;-64
2022/04/11 02:25:53;;;;;;;1.20;0.60;;;;;;;8.11;68.26;101423.06;2570271;23;20501;-64
2022/04/11 02:26:53;;;;;;;2.37;0.70;;;;;;;8.11;68.38;101427.81;2570204;23;20152;-64
2022/04/11 02:27:55;;;;;;;3.00;0.70;;;;;;;8.05;68.42;101421.13;2570268;23;20681;-64
2022/04/11 02:28:56;;;;;;;0.73;0.50;;;;;;;7.96;67.77;101427.03;2570287;23;20692;-64
2022/04/11 02:29:56;;;;;;;0.80;0.60;;;;;;;7.81;68.10;101432.94;2570261;23;20547;-64
2022/04/11 02:30:57;;;;;;;1.30;0.90;;;;;;;7.64;68.46;101447.53;2570210;23;20152;-64
2022/04/11 02:31:57;;;;;;;2.10;1.23;;;;;;;7.62;68.24;101431.38;2570080;23;20156;-64
2022/04/11 02:32:58;;;;;;;2.03;1.10;;;;;;;6.86;68.19;101313.47;2570247;23;20594;-64
2022/04/11 02:33:58;;;;;;;1.43;0.90;;;;;;;6.67;68.82;101278.03;2570207;23;20186;-64
2022/04/11 02:34:59;;;;;;;1.80;1.00;;;;;;;6.82;68.80;101302.44;2557028;23;20160;-64
2022/04/11 02:35:59;;;;;;;1.07;0.80;;;;;;;7.57;68.88;101409.69;2557085;23;20156;-64
2022/04/11 02:37:00;;;;;;;1.50;1.00;;;;;;;7.65;69.27;101416.78;2570165;23;20900;-64
2022/04/11 02:38:00;;;;;;;2.07;1.07;;;;;;;7.66;69.29;101418.38;2570239;23;20615;-64
2022/04/11 02:39:01;;;;;;;1.90;0.83;;;;;;;7.68;68.87;101420.75;2556980;23;20171;-64
2022/04/11 02:40:03;;;;;;;0.93;0.70;;;;;;;7.59;69.19;101429.38;2557120;23;20184;-64
2022/04/11 02:41:04;;;;;;;1.42;0.90;;;;;;;6.92;68.43;101339.50;2570043;23;20152;-64
2022/04/11 02:42:04;;;;;;;2.20;0.77;;;;;;;7.44;68.05;101430.53;2570190;23;20179;-64
2022/04/11 02:43:05;;;;;;;1.27;0.70;;;;;;;7.05;68.00;101401.31;2570246;23;20153;-64
2022/04/11 02:44:06;;;;;;;1.60;0.77;;;;;;;7.18;68.38;101419.84;2570422;23;20234;-64
2022/04/11 02:45:07;;;;;;;1.07;0.50;;;;;;;7.27;67.58;101427.75;2570123;23;20654;-65
2022/04/11 02:46:08;;;;;;;1.70;0.77;;;;;;;7.26;68.31;101432.50;2570238;23;20508;-64
2022/04/11 02:47:08;;;;;;;1.57;0.70;;;;;;;7.28;68.52;101434.84;2569934;23;20179;-65
2022/04/11 02:48:09;;;;;;;1.20;0.80;;;;;;;7.16;68.68;101416.72;2570298;23;20483;-64
2022/04/11 02:49:09;;;;;;;0.97;0.50;;;;;;;7.27;68.34;101433.25;2570214;23;20159;-64
2022/04/11 02:50:10;;;;;;;1.47;0.77;;;;;;;6.37;68.21;101292.13;2570212;23;20174;-64
2022/04/11 02:51:11;;;;;;;1.93;1.00;;;;;;;7.25;68.41;101430.91;2570208;23;20176;-64
2022/04/11 02:52:12;;;;;;;0.50;0.43;;;;;;;7.34;68.41;101428.56;2570238;23;20694;-64
2022/04/11 02:53:12;;;;;;;0.77;0.57;;;;;;;7.09;68.21;101397.41;2570105;23;20161;-64
2022/04/11 02:54:13;;;;;;;1.73;0.63;;;;;;;7.36;67.75;101428.16;2570245;23;20421;-64
2022/04/11 02:55:13;;;;;;;0.73;0.50;;;;;;;7.35;68.00;101432.91;2570231;23;20519;-65
2022/04/11 02:56:14;;;;;;;0.60;0.40;;;;;;;7.34;68.53;101442.34;2570294;23;20163;-64
2022/04/11 02:57:14;;;;;;;0.53;0.40;;;;;;;7.24;69.01;101423.03;2570131;23;20530;-65
2022/04/11 02:58:15;;;;;;;0.80;0.60;;;;;;;7.35;69.52;101443.94;2570066;23;20200;-65
2022/04/11 02:59:15;;;;;;;0.90;0.63;;;;;;;7.30;68.94;101451.78;2570338;23;20158;-64
2022/04/11 03:00:17;;;;;;;0.57;0.50;;;;;;;7.26;69.02;101448.22;2570137;23;20233;-64
2022/04/11 03:01:18;;;;;;;0.80;0.50;;;;;;;7.29;68.88;101447.47;2570153;23;20595;-64
2022/04/11 03:02:19;;;;;;;1.70;0.80;;;;;;;7.29;69.24;101437.19;2570188;23;20489;-64
2022/04/11 03:03:21;;;;;;;1.83;0.70;;;;;;;7.30;67.95;101443.53;2570091;23;20206;-64
2022/04/11 03:04:22;;;;;;;1.50;0.60;;;;;;;7.29;68.89;101444.69;2570250;23;20150;-65
2022/04/11 03:05:23;;;;;;;1.07;0.80;;;;;;;7.26;68.89;101451.78;2570265;23;20182;-64
2022/04/11 03:06:23;;;;;;;0.90;0.50;;;;;;;7.29;68.89;101451.00;2556855;23;20530;-64
2022/04/11 03:07:24;;;;;;;0.70;0.60;;;;;;;7.28;68.57;101443.91;2556910;23;20156;-64
2022/04/11 03:08:24;;;;;;;0.60;0.57;;;;;;;7.27;67.98;101453.34;2570235;23;20173;-65
2022/04/11 03:09:25;;;;;;;0.90;0.50;;;;;;;7.28;67.75;101457.69;2570150;23;20155;-65
2022/04/11 03:10:25;;;;;;;0.50;0.50;;;;;;;6.91;67.93;101395.75;2570079;23;20152;-64
2022/04/11 03:11:26;;;;;;;0.90;0.40;;;;;;;6.42;67.46;101337.75;2569900;23;20156;-64
2022/04/11 03:12:26;;;;;;;1.00;0.50;;;;;;;6.19;66.85;101287.69;2570260;23;20163;-64
2022/04/11 03:13:27;;;;;;;0.80;0.50;;;;;;;7.27;66.85;101453.34;2570091;23;20187;-64
2022/04/11 03:14:27;;;;;;;0.53;0.50;;;;;;;6.04;66.99;101266.78;2570178;23;20151;-64
2022/04/11 03:15:28;;;;;;;0.50;0.50;;;;;;;7.25;67.65;101460.44;2570160;23;20156;-64
2022/04/11 03:16:29;;;;;;;0.60;0.30;;;;;;;6.27;67.04;101303.06;2570287;23;20476;-64
2022/04/11 03:17:29;;;;;;;0.50;0.50;;;;;;;7.24;66.61;101453.34;2569920;23;20607;-64
2022/04/11 03:18:30;;;;;;;0.90;0.63;;;;;;;6.28;67.08;101319.19;2570198;23;20500;-65
2022/04/11 03:19:30;;;;;;;1.07;0.60;;;;;;;5.87;66.94;101246.28;2570151;23;20182;-65
2022/04/11 03:20:31;;;;;;;0.73;0.50;;;;;;;7.22;67.16;101456.50;2570029;23;20660;-65
2022/04/11 03:21:31;;;;;;;0.60;0.60;;;;;;;6.58;66.60;101366.53;2570197;23;20201;-64
2022/04/11 03:22:32;;;;;;;0.50;0.50;;;;;;;7.19;67.13;101456.50;2570210;23;20159;-64
2022/04/11 03:23:32;;;;;;;0.50;0.43;;;;;;;7.16;66.21;101458.06;2569933;23;20144;-64
2022/04/11 03:24:33;;;;;;;0.87;0.53;;;;;;;7.13;67.29;101458.81;2570140;23;20206;-64
2022/04/11 03:25:34;;;;;;;0.77;0.67;;;;;;;7.03;67.74;101448.53;2570228;23;20151;-64
2022/04/11 03:26:34;;;;;;;0.70;0.70;;;;;;;7.05;67.37;101462.75;2570143;23;20147;-64
2022/04/11 03:27:35;;;;;;;0.80;0.60;;;;;;;7.05;66.65;101461.94;2570122;23;20158;-64
2022/04/11 03:28:35;;;;;;;1.17;0.70;;;;;;;7.01;67.51;101458.38;2570291;23;20591;-65
2022/04/11 03:29:36;;;;;;;1.77;0.70;;;;;;;6.98;67.77;101465.47;2570895;23;20230;-65
2022/04/11 03:30:36;;;;;;;1.20;1.10;;;;;;;6.38;67.85;101373.53;2570928;23;20170;-64
2022/04/11 03:31:37;;;;;;;1.87;0.83;;;;;;;6.91;67.79;101461.88;2570783;23;20175;-65
2022/04/11 03:32:37;;;;;;;1.53;1.00;;;;;;;6.92;66.95;101464.25;2570947;23;20172;-64
2022/04/11 03:33:38;;;;;;;0.70;0.70;;;;;;;6.92;66.74;101464.25;2570790;23;20185;-65
2022/04/11 03:34:38;;;;;;;0.67;0.60;;;;;;;6.62;67.00;101421.63;2570968;23;20163;-64
2022/04/11 03:35:39;;;;;;;0.90;0.70;;;;;;;6.16;66.68;101349.78;2570895;23;20148;-64
2022/04/11 03:36:40;;;;;;;1.00;0.80;;;;;;;6.88;66.56;101466.19;2570780;23;20199;-65
2022/04/11 03:37:40;;;;;;;2.20;1.50;;;;;;;6.82;66.97;101465.00;2570844;23;20152;-64
2022/04/11 03:38:41;;;;;;;0.87;0.83;;;;;;;6.79;66.90;101465.78;2557590;23;20175;-64
2022/04/11 03:39:42;;;;;;;0.80;0.80;;;;;;;6.79;67.16;101470.50;2557711;23;20147;-65
2022/04/11 03:40:42;;;;;;;1.03;0.90;;;;;;;6.77;66.58;101470.88;2570864;23;20175;-64
2022/04/11 03:41:43;;;;;;;1.40;1.10;;;;;;;6.74;66.63;101471.66;2557520;23;20152;-65
2022/04/11 03:42:44;;;;;;;2.72;1.38;;;;;;;6.70;66.67;101473.59;2557743;23;20550;-64
2022/04/11 03:43:44;;;;;;;0.90;0.80;;;;;;;6.70;66.25;101476.34;2570805;23;20198;-65
2022/04/11 03:44:45;;;;;;;2.13;1.10;;;;;;;6.23;66.69;101398.59;2570992;23;20175;-65
2022/04/11 03:45:45;;;;;;;3.17;1.80;;;;;;;6.69;66.40;101479.50;2570530;23;20221;-64
2022/04/11 03:46:46;;;;;;;1.37;1.03;;;;;;;6.66;65.52;101483.03;2570820;23;20650;-64
2022/04/11 03:47:47;;;;;;;3.03;1.30;;;;;;;6.59;66.27;101474.72;2570913;23;20179;-64
2022/04/11 03:48:47;;;;;;;1.73;1.30;;;;;;;6.64;66.03;101485.38;2571059;23;20178;-64
2022/04/11 03:49:48;;;;;;;2.83;1.90;;;;;;;6.62;65.06;101487.72;2570938;23;20159;-65
2022/04/11 03:50:48;;;;;;;2.40;1.30;;;;;;;6.62;65.50;101483.00;2570827;23;20191;-64
2022/04/11 03:51:49;;;;;;;1.87;1.53;;;;;;;6.63;65.51;101490.09;2570798;23;20152;-65
2022/04/11 03:52:50;;;;;;;2.03;1.50;;;;;;;6.61;65.28;101489.69;2557661;23;20155;-64
2022/04/11 03:53:50;;;;;;;2.70;1.30;;;;;;;6.62;64.78;101484.97;2557466;23;20185;-64
2022/04/11 03:54:51;;;;;;;2.00;1.67;;;;;;;6.63;65.31;101492.84;2571035;23;20163;-64
2022/04/11 03:55:51;;;;;;;1.97;1.50;;;;;;;6.62;64.85;101487.72;2570769;23;20636;-64
2022/04/11 03:56:52;;;;;;;2.50;1.40;;;;;;;6.60;64.64;101485.34;2570805;23;20540;-64
2022/04/11 03:57:52;;;;;;;3.63;1.73;;;;;;;6.53;64.58;101474.31;2557564;23;20155;-64
2022/04/11 03:58:53;;;;;;;2.50;1.70;;;;;;;6.58;64.29;101486.91;2557668;23;20151;-64
2022/04/11 03:59:53;;;;;;;3.70;1.47;;;;;;;6.51;64.49;101479.38;2570770;23;20161;-64
2022/04/11 04:00:54;;;;;;;3.67;1.80;;;;;;;6.58;64.44;101492.41;2570880;23;20158;-64
2022/04/11 04:01:55;;;;;;;2.20;1.50;;;;;;;6.58;64.52;101490.47;2570058;23;20217;-64
2022/04/11 04:03:10;;;;;;;2.77;1.60;;;;;;;6.48;64.70;101482.94;2570673;23;20209;-65
2022/04/11 04:04:11;;;;;;;3.30;2.30;;;;;;;6.42;63.20;101481.69;2570874;23;20149;-64
2022/04/11 04:05:11;;;;;;;3.07;2.00;;;;;;;6.52;62.94;101497.47;2570874;23;20155;-64
2022/04/11 04:06:12;;;;;;;4.53;2.17;;;;;;;5.81;62.79;101393.59;2557521;23;20154;-64
2022/04/11 04:07:12;;;;;;;3.70;1.90;;;;;;;6.51;62.99;101493.16;2545100;23;20191;-65
2022/04/11 04:08:17;;;;;;;5.30;2.03;;;;;;;6.51;62.43;101500.66;2557539;23;20152;-65
2022/04/11 04:09:17;;;;;;;3.05;2.35;;;;;;;6.48;61.57;101501.41;2570761;23;20157;-65
2022/04/11 04:10:18;;;;;;;2.80;2.13;;;;;;;6.38;61.82;101494.66;2570830;23;20241;-64
2022/04/11 04:11:18;;;;;;;4.67;2.20;;;;;;;6.43;61.57;101505.31;2569910;23;20607;-64
2022/04/11 04:12:20;;;;;;;4.10;1.87;;;;;;;6.45;61.52;101508.47;2570335;23;20620;-64
2022/04/11 04:13:21;;;;;;;6.32;2.40;;;;;;;6.47;61.92;101505.34;2557202;23;20312;-65
2022/04/11 04:14:21;;;;;;;3.13;2.00;;;;;;;6.50;62.62;101510.06;2545132;23;20203;-65
2022/04/11 04:15:22;;;;;;;5.73;2.10;;;;;;;6.10;62.67;101446.88;2557586;23;20151;-65
2022/04/11 04:16:22;;;;;;;5.73;2.10;;;;;;;6.55;62.72;101506.94;2570576;23;20157;-65
2022/04/11 04:17:23;;;;;;;3.60;2.30;;;;;;;6.53;62.53;101510.09;2570706;23;20226;-64
2022/04/11 04:18:24;;;;;;;2.87;2.20;;;;;;;6.36;62.39;101485.19;2570694;23;20589;-64
2022/04/11 04:19:24;;;;;;;4.57;2.57;;;;;;;6.53;61.87;101512.06;2570610;23;20501;-64
2022/04/11 04:20:26;;;;;;;4.03;2.50;;;;;;;6.50;61.06;101508.09;2570691;23;20237;-64
2022/04/11 04:21:26;;;;;;;3.90;2.27;;;;;;;6.53;61.15;101512.06;2570525;23;20242;-65
2022/04/11 04:22:27;;;;;;;3.60;2.40;;;;;;;6.46;60.85;101509.25;2570618;23;20676;-65
2022/04/11 04:23:27;;;;;;;5.93;2.80;;;;;;;6.43;60.41;101518.28;2570594;23;20210;-65
2022/04/11 04:24:28;;;;;;;5.37;2.70;;;;;;;6.44;59.27;101517.09;2570735;23;20226;-65
2022/04/11 04:25:28;;;;;;;3.77;2.77;;;;;;;6.46;58.93;101517.53;2570567;23;20235;-65
2022/04/11 04:26:29;;;;;;;6.77;3.40;;;;;;;6.47;60.30;101514.38;2570591;23;20174;-65
2022/04/11 04:27:30;;;;;;;5.00;3.17;;;;;;;6.14;59.49;101464.19;2570504;23;20167;-65
2022/04/11 04:28:30;;;;;;;8.20;3.70;;;;;;;6.04;59.93;101451.94;2570495;23;20219;-65
2022/04/11 04:29:31;;;;;;;5.10;2.90;;;;;;;6.11;59.43;101475.97;2570614;23;20224;-65
2022/04/11 04:30:31;;;;;;;6.30;2.97;;;;;;;6.49;59.00;101517.53;2570687;23;20144;-65
2022/04/11 04:31:34;;;;;;;4.00;2.60;;;;;;;6.52;59.80;101522.25;2570516;23;20183;-65
2022/04/11 04:32:34;;;;;;;6.13;2.60;;;;;;;6.50;59.30;101521.06;2570288;23;20494;-65
2022/04/11 04:33:35;;;;;;;6.50;2.70;;;;;;;6.53;58.87;101517.56;2570318;23;20154;-65
2022/04/11 04:34:37;;;;;;;4.68;2.88;;;;;;;6.55;59.08;101523.47;2570315;23;20204;-65
2022/04/11 04:35:38;;;;;;;4.93;2.65;;;;;;;6.58;58.29;101525.47;2570092;23;20222;-65
2022/04/11 04:36:39;;;;;;;4.78;3.00;;;;;;;6.57;58.50;101521.13;2570077;23;20185;-65
2022/04/11 04:37:40;;;;;;;6.27;2.83;;;;;;;6.03;57.45;101449.56;2570390;23;20147;-65
2022/04/11 04:38:40;;;;;;;4.60;2.87;;;;;;;6.63;57.71;101545.19;2570230;23;20234;-65
2022/04/11 04:39:41;;;;;;;5.63;2.50;;;;;;;6.61;58.15;101532.97;2570354;23;20660;-65
2022/04/11 04:40:41;;;;;;;4.57;2.73;;;;;;;6.61;57.95;101536.50;2570190;23;20196;-65
2022/04/11 04:41:42;;;;;;;5.23;2.70;;;;;;;6.53;57.71;101523.06;2569892;23;20146;-65
2022/04/11 04:42:42;;;;;;;5.03;2.70;;;;;;;6.32;57.60;101511.91;2569387;23;20148;-65
2022/04/11 04:43:43;;;;;;;4.50;2.50;;;;;;;5.58;57.00;101370.97;2568578;23;20151;-65
2022/04/11 04:44:43;;;;;;;5.47;2.83;;;;;;;6.68;58.26;101546.78;2569896;23;20273;-65
2022/04/11 04:45:45;;;;;;;3.83;2.60;;;;;;;6.68;58.13;101546.78;2569429;23;20505;-65